Map

Track Data

SID SEASON NUMBER BASIN SUBBASIN NAME ISO_TIME NATURE LAT LON WMO_WIND WMO_PRES WMO_AGENCY TRACK_TYPE DIST2LAND LANDFALL IFLAG USA_AGENCY USA_ATCF_ID USA_LAT USA_LON USA_RECORD USA_STATUS USA_WIND USA_PRES USA_SSHS USA_R34_NE USA_R34_SE USA_R34_SW USA_R34_NW USA_R50_NE USA_R50_SE USA_R50_SW USA_R50_NW USA_R64_NE USA_R64_SE USA_R64_SW USA_R64_NW USA_POCI USA_ROCI USA_RMW USA_EYE TOKYO_LAT TOKYO_LON TOKYO_GRADE TOKYO_WIND TOKYO_PRES TOKYO_R50_DIR TOKYO_R50_LONG TOKYO_R50_SHORT TOKYO_R30_DIR TOKYO_R30_LONG TOKYO_R30_SHORT TOKYO_LAND CMA_LAT CMA_LON CMA_CAT CMA_WIND CMA_PRES HKO_LAT HKO_LON HKO_CAT HKO_WIND HKO_PRES NEWDELHI_LAT NEWDELHI_LON NEWDELHI_GRADE NEWDELHI_WIND NEWDELHI_PRES NEWDELHI_CI NEWDELHI_DP NEWDELHI_POCI REUNION_LAT REUNION_LON REUNION_TYPE REUNION_WIND REUNION_PRES REUNION_TNUM REUNION_CI REUNION_RMW REUNION_R34_NE REUNION_R34_SE REUNION_R34_SW REUNION_R34_NW REUNION_R50_NE REUNION_R50_SE REUNION_R50_SW REUNION_R50_NW REUNION_R64_NE REUNION_R64_SE REUNION_R64_SW REUNION_R64_NW BOM_LAT BOM_LON BOM_TYPE BOM_WIND BOM_PRES BOM_TNUM BOM_CI BOM_RMW BOM_R34_NE BOM_R34_SE BOM_R34_SW BOM_R34_NW BOM_R50_NE BOM_R50_SE BOM_R50_SW BOM_R50_NW BOM_R64_NE BOM_R64_SE BOM_R64_SW BOM_R64_NW BOM_ROCI BOM_POCI BOM_EYE BOM_POS_METHOD BOM_PRES_METHOD NADI_LAT NADI_LON NADI_CAT NADI_WIND NADI_PRES WELLINGTON_LAT WELLINGTON_LON WELLINGTON_WIND WELLINGTON_PRES DS824_LAT DS824_LON DS824_STAGE DS824_WIND DS824_PRES TD9636_LAT TD9636_LON TD9636_STAGE TD9636_WIND TD9636_PRES TD9635_LAT TD9635_LON TD9635_WIND TD9635_PRES TD9635_ROCI NEUMANN_LAT NEUMANN_LON NEUMANN_CLASS NEUMANN_WIND NEUMANN_PRES MLC_LAT MLC_LON MLC_CLASS MLC_WIND MLC_PRES USA_GUST BOM_GUST BOM_GUST_PER REUNION_GUST REUNION_GUST_PER USA_SEAHGT USA_SEARAD_NE USA_SEARAD_SE USA_SEARAD_SW USA_SEARAD_NW STORM_SPEED STORM_DIR
1895244N17128 1895 29 WP MM NOT_NAMED 1895-08-31 16:00:00 NR 17.4000 128.400 main 580 572 __________O___ -1 17.4000 128.400 7 6 294
1895244N17128 1895 29 WP MM NOT_NAMED 1895-08-31 18:00:00 NR 17.4769 128.217 main 572 557 __________P___ -1 17.4769 128.217 7 6 294
1895244N17128 1895 29 WP MM NOT_NAMED 1895-08-31 21:00:00 NR 17.5946 127.937 main 557 544 __________P___ -1 17.5946 127.937 7 6 294
1895244N17128 1895 29 WP MM NOT_NAMED 1895-09-01 00:00:00 NR 17.7185 127.640 main 544 517 __________P___ -1 17.7185 127.640 7 6 294
1895244N17128 1895 29 WP MM NOT_NAMED 1895-09-01 03:00:00 NR 17.8524 127.316 main 519 508 __________P___ -1 17.8524 127.316 7 7 293
1895244N17128 1895 29 WP MM NOT_NAMED 1895-09-01 04:00:00 NR 17.9000 127.200 main 508 490 __________O___ -1 17.9000 127.200 7 7 293
1895244N17128 1895 29 WP MM NOT_NAMED 1895-09-01 06:00:00 NR 18.0001 126.957 main 490 451 __________P___ -1 18.0001 126.957 7 8 294
1895244N17128 1895 29 WP MM NOT_NAMED 1895-09-01 09:00:00 NR 18.1628 126.572 main 454 411 __________P___ -1 18.1628 126.572 7 8 295
1895244N17128 1895 29 WP MM NOT_NAMED 1895-09-01 12:00:00 NR 18.3402 126.185 main 411 369 __________P___ -1 18.3402 126.185 7 8 297
1895244N17128 1895 29 WP MM NOT_NAMED 1895-09-01 15:00:00 NR 18.5326 125.815 main 369 359 __________P___ -1 18.5326 125.815 7 8 299
1895244N17128 1895 29 WP MM NOT_NAMED 1895-09-01 16:00:00 NR 18.6000 125.700 main 359 339 __________O___ -1 18.6000 125.700 7 8 304
1895244N17128 1895 29 WP MM NOT_NAMED 1895-09-01 18:00:00 NR 18.7410 125.486 main 339 310 __________P___ -1 18.7410 125.486 7 7 307
1895244N17128 1895 29 WP MM NOT_NAMED 1895-09-01 21:00:00 NR 18.9654 125.190 main 312 287 __________P___ -1 18.9654 125.190 7 7 310
1895244N17128 1895 29 WP MM NOT_NAMED 1895-09-02 00:00:00 NR 19.1968 124.921 main 287 276 __________P___ -1 19.1968 124.921 7 7 314
1895244N17128 1895 29 WP MM NOT_NAMED 1895-09-02 03:00:00 NR 19.4258 124.677 main 276 271 __________P___ -1 19.4258 124.677 7 6 315
1895244N17128 1895 29 WP MM NOT_NAMED 1895-09-02 04:00:00 NR 19.5000 124.600 main 271 258 __________O___ -1 19.5000 124.600 7 6 313
1895244N17128 1895 29 WP MM NOT_NAMED 1895-09-02 06:00:00 NR 19.6284 124.447 main 258 253 __________P___ -1 19.6284 124.447 7 6 313
1895244N17128 1895 29 WP MM NOT_NAMED 1895-09-02 09:00:00 NR 19.8146 124.236 main 253 252 __________P___ -1 19.8146 124.236 7 5 315
1895244N17128 1895 29 WP MM NOT_NAMED 1895-09-02 12:00:00 NR 20.0070 124.042 main 252 252 __________P___ -1 20.0070 124.042 7 5 319
1895244N17128 1895 29 WP MM NOT_NAMED 1895-09-02 15:00:00 NR 20.2211 123.859 main 262 255 __________P___ -1 20.2211 123.859 7 6 322
1895244N17128 1895 29 WP MM NOT_NAMED 1895-09-02 16:00:00 NR 20.3000 123.800 main 264 264 __________O___ -1 20.3000 123.800 7 6 327
1895244N17128 1895 29 WP MM NOT_NAMED 1895-09-02 18:00:00 NR 20.4876 123.672 main 276 271 __________P___ -1 20.4876 123.672 7 7 329
1895244N17128 1895 29 WP MM NOT_NAMED 1895-09-02 21:00:00 NR 20.7946 123.487 main 295 263 __________P___ -1 20.7946 123.487 7 7 332
1895244N17128 1895 29 WP MM NOT_NAMED 1895-09-03 00:00:00 NR 21.1099 123.312 main 263 244 __________P___ -1 21.1099 123.312 7 7 333
1895244N17128 1895 29 WP MM NOT_NAMED 1895-09-03 03:00:00 NR 21.4085 123.150 main 244 231 __________P___ -1 21.4085 123.150 7 7 333
1895244N17128 1895 29 WP MM NOT_NAMED 1895-09-03 04:00:00 NR 21.5000 123.100 main 231 219 __________O___ -1 21.5000 123.100 3 6 329
1895244N17128 1895 29 WP MM NOT_NAMED 1895-09-03 06:00:00 NR 21.6483 122.997 main 219 206 __________P___ -1 21.6483 122.997 3 5 327
1895244N17128 1895 29 WP MM NOT_NAMED 1895-09-03 09:00:00 NR 21.8453 122.856 main 206 181 __________P___ -1 21.8453 122.856 3 5 327
1895244N17128 1895 29 WP MM NOT_NAMED 1895-09-03 12:00:00 NR 22.0313 122.732 main 181 158 __________P___ -1 22.0313 122.732 3 4 331
1895244N17128 1895 29 WP MM NOT_NAMED 1895-09-03 15:00:00 NR 22.2282 122.629 main 158 152 __________P___ -1 22.2282 122.629 3 4 335
1895244N17128 1895 29 WP MM NOT_NAMED 1895-09-03 16:00:00 NR 22.3000 122.600 main 152 131 __________O___ -1 22.3000 122.600 4 5 344
1895244N17128 1895 29 WP MM NOT_NAMED 1895-09-03 18:00:00 NR 22.4531 122.549 main 131 121 __________P___ -1 22.4531 122.549 4 5 346
1895244N17128 1895 29 WP MM NOT_NAMED 1895-09-03 21:00:00 NR 22.7013 122.492 main 121 113 __________P___ -1 22.7013 122.492 4 5 350
1895244N17128 1895 29 WP MM NOT_NAMED 1895-09-04 00:00:00 NR 22.9775 122.450 main 113 102 __________P___ -1 22.9775 122.450 4 6 353
1895244N17128 1895 29 WP MM NOT_NAMED 1895-09-04 03:00:00 NR 23.2879 122.413 main 102 97 __________P___ -1 23.2879 122.413 4 6 355
1895244N17128 1895 29 WP MM NOT_NAMED 1895-09-04 04:00:00 NR 23.4000 122.400 main 97 92 __________O___ -1 23.4000 122.400 4 7 350
1895244N17128 1895 29 WP MM NOT_NAMED 1895-09-04 06:00:00 NR 23.6434 122.351 main 92 67 __________P___ -1 23.6434 122.351 4 8 350
1895244N17128 1895 29 WP MM NOT_NAMED 1895-09-04 09:00:00 NR 24.0401 122.278 main 67 30 __________P___ -1 24.0401 122.278 4 8 352
1895244N17128 1895 29 WP MM NOT_NAMED 1895-09-04 12:00:00 NR 24.4553 122.220 main 30 23 __________P___ -1 24.4553 122.220 4 8 355
1895244N17128 1895 29 WP MM NOT_NAMED 1895-09-04 15:00:00 NR 24.8672 122.197 main 23 20 __________P___ -1 24.8672 122.197 4 8 357
1895244N17128 1895 29 WP MM NOT_NAMED 1895-09-04 16:00:00 NR 25.0000 122.200 main 20 20 __________O___ -1 25.0000 122.200 4 7 0
1895244N17128 1895 29 WP MM NOT_NAMED 1895-09-04 18:00:00 NR 25.2342 122.217 main 30 39 __________P___ -1 25.2342 122.217 4 7 6
1895244N17128 1895 29 WP MM NOT_NAMED 1895-09-04 21:00:00 NR 25.5726 122.280 main 73 73 __________P___ -1 25.5726 122.280 4 7 13
1895244N17128 1895 29 WP MM NOT_NAMED 1895-09-05 00:00:00 NR 25.9124 122.387 main 108 108 __________P___ -1 25.9124 122.387 4 7 19
1895244N17128 1895 29 WP MM NOT_NAMED 1895-09-05 03:00:00 NR 26.2723 122.539 main 152 152 __________P___ -1 26.2723 122.539 4 8 21
1895244N17128 1895 29 WP MM NOT_NAMED 1895-09-05 04:00:00 NR 26.4000 122.600 main 167 167 __________O___ -1 26.4000 122.600 4 9 19
1895244N17128 1895 29 WP MM NOT_NAMED 1895-09-05 06:00:00 NR 26.6846 122.701 main 200 185 __________P___ -1 26.6846 122.701 4 9 19
1895244N17128 1895 29 WP MM NOT_NAMED 1895-09-05 09:00:00 NR 27.1369 122.891 main 185 166 __________P___ -1 27.1369 122.891 4 10 23
1895244N17128 1895 29 WP MM NOT_NAMED 1895-09-05 12:00:00 NR 27.6008 123.141 main 166 166 __________P___ -1 27.6008 123.141 4 11 29
1895244N17128 1895 29 WP MM NOT_NAMED 1895-09-05 15:00:00 NR 28.0547 123.470 main 187 187 __________P___ -1 28.0547 123.470 4 11 34
1895244N17128 1895 29 WP MM NOT_NAMED 1895-09-05 16:00:00 NR 28.2000 123.600 main 191 191 __________O___ -1 28.2000 123.600 4 11 41
1895244N17128 1895 29 WP MM NOT_NAMED 1895-09-05 18:00:00 NR 28.4783 123.894 main 200 200 __________P___ -1 28.4783 123.894 4 12 47
1895244N17128 1895 29 WP MM NOT_NAMED 1895-09-05 21:00:00 NR 28.8688 124.406 main 235 235 __________P___ -1 28.8688 124.406 4 12 52
1895244N17128 1895 29 WP MM NOT_NAMED 1895-09-06 00:00:00 NR 29.2347 124.980 main 290 290 __________P___ -1 29.2347 124.980 4 13 55
1895244N17128 1895 29 WP MM NOT_NAMED 1895-09-06 03:00:00 NR 29.5851 125.592 main 351 351 __________P___ -1 29.5851 125.592 4 13 57
1895244N17128 1895 29 WP MM NOT_NAMED 1895-09-06 04:00:00 NR 29.7000 125.800 main 371 __________O___ -1 29.7000 125.800 4 13 57

Digital Typhoon Data and Search

About IBTrACS Database

This database is a web-friendly format of International Best Track Archive for Climate Stewardship (IBTrACS), a global best track data archive curated by NOAA dating back to 1842.

Updated: 2021-12-08